createdAt,value
2019-06-07T00:01:37.773Z,4.60
2019-06-07T00:04:08.499Z,4.37
2019-06-07T00:06:36.515Z,4.33
2019-06-07T00:09:09.636Z,4.20
2019-06-07T00:11:37.226Z,4.80
2019-06-07T00:14:05.740Z,4.20
2019-06-07T00:16:34.239Z,4.73
2019-06-07T00:19:02.815Z,4.87
2019-06-07T00:22:12.967Z,5.00
2019-06-07T00:24:01.447Z,5.43
2019-06-07T00:26:29.901Z,5.50
2019-06-07T00:28:58.705Z,5.20
2019-06-07T00:31:27.156Z,5.80
2019-06-07T00:33:56.280Z,5.53
2019-06-07T00:36:24.957Z,6.37
2019-06-07T00:38:53.366Z,6.13
2019-06-07T00:41:22.335Z,5.90
2019-06-07T00:43:50.951Z,6.00
2019-06-07T00:46:21.637Z,6.17
2019-06-07T00:48:49.605Z,6.10
2019-06-07T00:51:19.612Z,5.30
2019-06-07T00:53:48.208Z,5.20
2019-06-07T00:56:18.757Z,4.60
2019-06-07T00:58:46.968Z,5.03
2019-06-07T01:01:18.495Z,5.20
2019-06-07T01:03:45.640Z,5.60
2019-06-07T01:06:15.014Z,5.47
2019-06-07T01:08:43.504Z,5.50
2019-06-07T01:11:13.487Z,5.43
2019-06-07T01:13:42.065Z,6.20
2019-06-07T01:16:10.523Z,6.30
2019-06-07T01:18:45.573Z,5.33
2019-06-07T01:21:09.139Z,5.77
2019-06-07T01:26:07.758Z,5.50
2019-06-07T01:28:36.257Z,6.00
2019-06-07T01:31:04.784Z,5.53
2019-06-07T01:33:50.389Z,5.57
2019-06-07T01:36:03.458Z,6.03
2019-06-07T01:38:31.885Z,5.70
2019-06-07T01:41:00.421Z,5.63
2019-06-07T01:43:31.024Z,5.30
2019-06-07T01:45:59.069Z,5.50
2019-06-07T01:48:46.170Z,5.90
2019-06-07T01:50:57.667Z,6.63
2019-06-07T01:53:28.454Z,6.10
2019-06-07T01:55:56.340Z,6.03
2019-06-07T01:58:28.780Z,6.03
2019-06-07T02:00:55.183Z,5.90
2019-06-07T02:03:26.952Z,6.13
2019-06-07T02:05:53.786Z,6.33
2019-06-07T02:08:23.973Z,4.67
2019-06-07T02:10:52.483Z,4.70
2019-06-07T02:13:21.307Z,5.47
2019-06-07T02:15:49.742Z,4.90
2019-06-07T02:18:21.829Z,4.73
2019-06-07T02:20:48.352Z,4.60
2019-06-07T02:23:16.815Z,4.47
2019-06-07T02:25:50.207Z,4.60
2019-06-07T02:28:32.002Z,4.80
2019-06-07T02:30:58.393Z,4.60
2019-06-07T02:33:15.866Z,4.87
2019-06-07T02:35:44.347Z,4.20
2019-06-07T02:38:12.802Z,4.60
2019-06-07T02:40:41.287Z,4.90
2019-06-07T02:43:09.739Z,4.07
2019-06-07T02:45:43.364Z,4.03
2019-06-07T02:48:08.420Z,4.50
2019-06-07T02:50:38.791Z,4.20
2019-06-07T02:53:07.124Z,4.53
2019-06-07T02:56:26.494Z,4.63
2019-06-07T02:58:05.803Z,4.10
2019-06-07T03:00:58.713Z,3.93
2019-06-07T03:03:07.655Z,4.20
2019-06-07T03:05:40.769Z,3.80
2019-06-07T03:08:08.739Z,3.90
2019-06-07T03:10:41.598Z,3.80
2019-06-07T03:13:08.152Z,4.23
2019-06-07T03:15:47.717Z,4.30
2019-06-07T03:18:12.523Z,4.33
2019-06-07T03:20:41.650Z,4.37
2019-06-07T03:23:10.079Z,4.70
2019-06-07T03:25:40.077Z,4.87
2019-06-07T03:28:08.678Z,4.00
2019-06-07T03:30:52.131Z,4.40
2019-06-07T03:33:07.446Z,4.37
2019-06-07T03:35:37.486Z,4.17
2019-06-07T03:38:06.323Z,4.23
2019-06-07T03:40:38.504Z,4.33
2019-06-07T03:43:04.953Z,4.03
2019-06-07T03:45:36.018Z,4.53
2019-06-07T03:48:03.581Z,4.40
2019-06-07T03:50:35.940Z,4.43
2019-06-07T03:53:02.192Z,4.30
2019-06-07T03:55:34.884Z,4.30
2019-06-07T03:58:30.818Z,4.97
2019-06-07T04:00:32.973Z,4.57
2019-06-07T04:03:01.166Z,4.17
2019-06-07T04:05:32.152Z,4.50
2019-06-07T04:07:59.767Z,4.37
2019-06-07T04:10:48.650Z,4.63
2019-06-07T04:12:58.368Z,4.73
2019-06-07T04:15:27.814Z,5.60
2019-06-07T04:18:01.819Z,5.57
2019-06-07T04:20:29.188Z,5.40
2019-06-07T04:22:57.011Z,4.93
2019-06-07T04:25:25.465Z,5.50
2019-06-07T04:27:53.900Z,5.40
2019-06-07T04:30:42.672Z,5.50
2019-06-07T04:33:12.220Z,5.77
2019-06-07T04:35:43.121Z,5.50
2019-06-07T04:38:12.339Z,5.30
2019-06-07T04:40:42.815Z,5.47
2019-06-07T04:43:12.541Z,5.40
2019-06-07T04:45:50.349Z,6.13
2019-06-07T04:48:11.222Z,6.60
2019-06-07T04:50:43.666Z,6.10
2019-06-07T04:53:10.999Z,6.67
2019-06-07T04:55:41.594Z,5.80
2019-06-07T04:58:09.678Z,7.20
2019-06-07T05:01:02.419Z,6.47
2019-06-07T05:03:08.538Z,5.60
2019-06-07T05:05:41.205Z,5.80
2019-06-07T05:08:17.788Z,6.20
2019-06-07T05:10:38.791Z,5.20
2019-06-07T05:13:07.753Z,4.67
2019-06-07T05:15:38.978Z,5.77
2019-06-07T05:18:06.360Z,4.60
2019-06-07T05:20:36.095Z,4.30
2019-06-07T05:23:05.046Z,4.40
2019-06-07T05:25:35.709Z,4.03
2019-06-07T05:28:03.901Z,3.43
2019-06-07T05:31:02.097Z,3.07
2019-06-07T05:33:06.456Z,3.50
2019-06-07T05:35:35.687Z,3.20
2019-06-07T05:38:05.855Z,2.93
2019-06-07T05:40:43.752Z,3.17
2019-06-07T05:43:23.474Z,3.00
2019-06-07T05:45:51.967Z,2.67
2019-06-07T05:48:20.412Z,2.30
2019-06-07T05:50:56.418Z,2.70
2019-06-07T05:53:19.023Z,2.27
2019-06-07T05:55:48.071Z,2.50
2019-06-07T05:58:16.592Z,2.87
2019-06-07T06:00:47.443Z,2.13
2019-06-07T06:03:15.346Z,2.33
2019-06-07T06:05:54.258Z,2.40
2019-06-07T06:08:14.017Z,2.30
2019-06-07T06:10:46.109Z,2.20
2019-06-07T06:13:12.680Z,2.60
2019-06-07T06:15:54.866Z,2.97
2019-06-07T06:18:11.737Z,2.97
2019-06-07T06:21:04.701Z,3.03
2019-06-07T06:23:10.408Z,2.90
2019-06-07T06:25:42.624Z,3.10
2019-06-07T06:28:12.027Z,3.00
2019-06-07T06:30:41.190Z,2.50
2019-06-07T06:33:27.076Z,3.13
2019-06-07T06:35:39.946Z,2.67
2019-06-07T06:38:08.548Z,2.80
2019-06-07T06:40:38.928Z,3.00
2019-06-07T06:43:07.230Z,2.47
2019-06-07T06:45:35.666Z,2.80
2019-06-07T06:48:04.285Z,2.97
2019-06-07T06:50:32.714Z,2.67
2019-06-07T06:53:01.160Z,2.63
2019-06-07T06:55:29.581Z,3.03
2019-06-07T06:57:58.033Z,3.00
2019-06-07T07:00:51.670Z,2.30
2019-06-07T07:05:49.468Z,2.10
2019-06-07T07:08:14.735Z,2.40
2019-06-07T07:10:46.024Z,2.20
2019-06-07T07:13:15.165Z,2.40
2019-06-07T07:15:46.847Z,2.83
2019-06-07T07:18:13.815Z,2.40
2019-06-07T07:20:43.983Z,2.70
2019-06-07T07:23:12.542Z,2.70
2019-06-07T07:25:43.534Z,2.30
2019-06-07T07:28:11.274Z,2.47
2019-06-07T07:30:56.416Z,2.80
2019-06-07T07:33:22.471Z,2.50
2019-06-07T07:36:15.780Z,2.30
2019-06-07T07:38:21.680Z,2.53
2019-06-07T07:41:13.328Z,2.30
2019-06-07T07:43:20.448Z,2.50
2019-06-07T07:45:53.104Z,2.20
2019-06-07T07:48:19.100Z,2.70
2019-06-07T07:50:51.015Z,2.60
2019-06-07T07:53:17.769Z,2.10
2019-06-07T07:55:51.559Z,2.40
2019-06-07T07:58:16.434Z,1.90
2019-06-07T08:01:00.703Z,2.43
2019-06-07T08:03:15.122Z,2.43
2019-06-07T08:05:45.725Z,1.90
2019-06-07T08:08:13.722Z,2.00
2019-06-07T08:10:42.247Z,2.13
2019-06-07T08:13:27.616Z,2.50
2019-06-07T08:15:40.913Z,2.03
2019-06-07T08:18:09.331Z,1.87
2019-06-07T08:20:37.776Z,1.90
2019-06-07T08:23:06.271Z,2.33
2019-06-07T08:25:34.862Z,1.80
2019-06-07T08:28:03.351Z,1.93
2019-06-07T08:30:52.114Z,2.10
2019-06-07T08:33:24.479Z,2.10
2019-06-07T08:40:32.670Z,1.73
2019-06-07T08:43:15.060Z,1.70
2019-06-07T08:45:31.336Z,1.80
2019-06-07T08:48:09.190Z,1.80
2019-06-07T08:50:30.171Z,2.00
2019-06-07T08:53:10.906Z,1.80
2019-06-07T08:55:28.843Z,1.83
2019-06-07T08:58:02.359Z,1.90
2019-06-07T09:00:46.953Z,1.90
2019-06-07T09:03:03.451Z,2.07
2019-06-07T09:05:28.398Z,2.00
2019-06-07T09:08:21.693Z,2.07
2019-06-07T09:10:27.369Z,2.20
2019-06-07T09:13:00.294Z,1.77
2019-06-07T09:15:25.964Z,1.80
2019-06-07T09:18:34.737Z,1.90
2019-06-07T09:20:36.259Z,1.80
2019-06-07T09:22:59.044Z,2.03
2019-06-07T09:25:24.218Z,1.97
2019-06-07T09:27:52.908Z,2.00
2019-06-07T09:30:41.871Z,2.17
2019-06-07T09:33:11.198Z,1.87
2019-06-07T09:35:40.124Z,1.80
2019-06-07T09:38:23.375Z,1.83
2019-06-07T09:40:38.795Z,1.93
2019-06-07T09:43:55.387Z,2.07
2019-06-07T09:45:37.574Z,1.87
2019-06-07T09:48:13.593Z,2.00
2019-06-07T09:50:36.262Z,1.80
2019-06-07T09:53:19.065Z,1.60
2019-06-07T09:55:35.154Z,1.63
2019-06-07T09:58:47.539Z,1.90
2019-06-07T10:00:40.590Z,2.10
2019-06-07T10:03:16.703Z,2.00
2019-06-07T10:05:34.502Z,1.80
2019-06-07T10:08:16.152Z,1.70
2019-06-07T10:13:01.841Z,1.80
2019-06-07T10:15:30.437Z,1.60
2019-06-07T10:17:58.959Z,1.60
2019-06-07T10:20:27.380Z,2.00
2019-06-07T10:22:55.851Z,1.73
2019-06-07T10:25:24.275Z,1.80
2019-06-07T10:27:52.805Z,1.87
2019-06-07T10:30:22.467Z,2.30
2019-06-07T10:32:52.291Z,1.60
2019-06-07T10:35:20.900Z,1.80
2019-06-07T10:37:49.348Z,1.73
2019-06-07T10:40:18.111Z,1.77
2019-06-07T10:42:46.555Z,1.83
2019-06-07T10:45:15.133Z,2.20
2019-06-07T10:47:43.584Z,2.00
2019-06-07T10:50:12.346Z,2.23
2019-06-07T10:52:40.797Z,2.17
2019-06-07T10:55:10.654Z,1.70
2019-06-07T10:57:39.065Z,1.60
2019-06-07T11:00:11.515Z,1.90
2019-06-07T11:02:40.039Z,1.63
2019-06-07T11:05:10.108Z,1.77
2019-06-07T11:07:38.845Z,2.03
2019-06-07T11:10:13.382Z,1.70
2019-06-07T11:12:37.911Z,2.00
2019-06-07T11:15:08.950Z,2.00
2019-06-07T11:17:37.448Z,2.20
2019-06-07T11:20:10.307Z,1.70
2019-06-07T11:22:39.043Z,1.90
2019-06-07T11:25:09.220Z,1.90
2019-06-07T11:27:38.457Z,1.87
2019-06-07T11:30:10.567Z,1.90
2019-06-07T11:32:39.451Z,2.03
2019-06-07T11:35:10.581Z,1.50
2019-06-07T11:37:39.300Z,1.60
2019-06-07T11:40:27.739Z,1.73
2019-06-07T11:42:40.485Z,1.30
2019-06-07T11:45:12.657Z,1.87
2019-06-07T11:47:40.659Z,1.70
2019-06-07T11:50:09.632Z,1.60
2019-06-07T11:52:38.709Z,1.70
2019-06-07T11:55:09.029Z,1.80
2019-06-07T11:57:37.786Z,1.47
2019-06-07T12:00:11.135Z,1.47
2019-06-07T12:02:40.020Z,1.50
2019-06-07T12:05:10.410Z,1.53
2019-06-07T12:07:38.953Z,1.70
2019-06-07T12:10:08.542Z,1.80
2019-06-07T12:12:37.214Z,1.70
2019-06-07T12:15:10.604Z,1.50
2019-06-07T12:17:39.582Z,1.80
2019-06-07T12:20:10.582Z,1.90
2019-06-07T12:22:38.801Z,1.70
2019-06-07T12:25:07.929Z,1.47
2019-06-07T12:27:36.349Z,1.83
2019-06-07T12:30:15.435Z,1.60
2019-06-07T12:32:39.510Z,1.90
2019-06-07T12:35:08.159Z,2.00
2019-06-07T12:37:43.608Z,1.90
2019-06-07T12:40:10.010Z,1.73
2019-06-07T12:42:38.613Z,2.00
2019-06-07T12:45:08.406Z,2.00
2019-06-07T12:47:36.930Z,2.07
2019-06-07T12:50:07.265Z,1.93
2019-06-07T12:52:35.750Z,2.10
2019-06-07T12:55:06.383Z,1.80
2019-06-07T12:57:34.900Z,2.40
2019-06-07T13:00:05.029Z,2.03
2019-06-07T13:02:33.477Z,1.80
2019-06-07T13:05:04.749Z,1.90
2019-06-07T13:07:32.128Z,2.20
2019-06-07T13:10:00.552Z,2.20
2019-06-07T13:12:29.001Z,2.07
2019-06-07T13:14:57.421Z,2.10
2019-06-07T13:17:25.880Z,1.83
2019-06-07T13:19:54.305Z,2.37
2019-06-07T13:22:22.752Z,2.00
2019-06-07T13:24:51.174Z,2.07
2019-06-07T13:27:20.387Z,2.10
2019-06-07T13:29:48.971Z,1.80
2019-06-07T13:32:17.522Z,1.80
2019-06-07T13:34:45.922Z,2.00
2019-06-07T13:37:14.373Z,2.27
2019-06-07T13:39:42.807Z,2.17
2019-06-07T13:42:11.326Z,2.00
2019-06-07T13:44:39.750Z,2.10
2019-06-07T13:47:08.204Z,1.77
2019-06-07T13:49:36.629Z,1.90
2019-06-07T13:52:05.142Z,2.30
2019-06-07T13:54:33.562Z,1.80
2019-06-07T13:57:03.252Z,2.67
2019-06-07T13:59:31.905Z,2.50
2019-06-07T14:02:00.330Z,1.63
2019-06-07T14:04:29.175Z,1.80
2019-06-07T14:06:57.684Z,2.00
2019-06-07T14:09:27.444Z,2.23
2019-06-07T14:11:56.131Z,2.00
2019-06-07T14:14:26.963Z,2.00
2019-06-07T14:16:54.872Z,1.90
2019-06-07T14:19:24.517Z,2.00
2019-06-07T14:21:53.018Z,1.90
2019-06-07T14:24:22.840Z,2.00
2019-06-07T14:27:06.227Z,2.10
2019-06-07T14:29:36.366Z,1.77
2019-06-07T14:32:06.818Z,1.83
2019-06-07T14:34:35.441Z,1.97
2019-06-07T14:37:04.539Z,1.93
2019-06-07T14:39:33.513Z,1.80
2019-06-07T14:42:09.038Z,2.03
2019-06-07T14:44:33.751Z,2.10
2019-06-07T14:47:02.615Z,1.70
2019-06-07T14:49:32.709Z,2.13
2019-06-07T14:52:01.371Z,1.83
2019-06-07T14:54:33.460Z,1.73
2019-06-07T14:57:03.062Z,1.90
2019-06-07T14:59:30.581Z,1.70
2019-06-07T15:01:59.534Z,1.80
2019-06-07T15:04:28.572Z,2.00
2019-06-07T15:06:57.097Z,1.80
2019-06-07T15:09:26.925Z,1.70
2019-06-07T15:11:55.815Z,1.63
2019-06-07T15:14:24.272Z,1.87
2019-06-07T15:16:52.711Z,1.70
2019-06-07T15:19:23.952Z,1.90
2019-06-07T15:21:51.293Z,2.10
2019-06-07T15:24:19.754Z,1.87
2019-06-07T15:26:48.180Z,1.87
2019-06-07T15:29:16.636Z,1.83
2019-06-07T15:31:45.126Z,1.80
2019-06-07T15:34:13.573Z,1.97
2019-06-07T15:36:42.070Z,2.00
2019-06-07T15:39:10.534Z,1.80
2019-06-07T15:41:39.697Z,1.83
2019-06-07T15:44:08.389Z,1.83
2019-06-07T15:46:37.933Z,1.70
2019-06-07T15:49:06.734Z,2.00
2019-06-07T15:51:36.528Z,2.00
2019-06-07T15:54:05.690Z,1.80
2019-06-07T15:56:34.684Z,1.90
2019-06-07T15:59:03.256Z,2.13
2019-06-07T16:01:33.355Z,2.00
2019-06-07T16:04:02.669Z,2.43
2019-06-07T16:06:32.097Z,2.30
2019-06-07T16:09:00.664Z,2.07
2019-06-07T16:11:29.866Z,2.20
2019-06-07T16:13:58.359Z,2.20
2019-06-07T16:16:26.812Z,2.13
2019-06-07T16:18:55.234Z,2.10
2019-06-07T16:21:23.695Z,2.27
2019-06-07T16:23:52.294Z,2.40
2019-06-07T16:26:20.748Z,2.47
2019-06-07T16:28:49.167Z,2.13
2019-06-07T16:31:17.628Z,2.13
2019-06-07T16:33:46.049Z,2.33
2019-06-07T16:36:14.501Z,2.30
2019-06-07T16:38:42.918Z,2.70
2019-06-07T16:41:11.435Z,2.37
2019-06-07T16:43:40.562Z,2.53
2019-06-07T16:46:09.168Z,2.43
2019-06-07T16:48:38.723Z,2.33
2019-06-07T16:51:07.298Z,2.03
2019-06-07T16:53:36.150Z,2.60
2019-06-07T16:56:05.685Z,3.00
2019-06-07T16:58:34.096Z,2.80
2019-06-07T17:01:02.643Z,2.67
2019-06-07T17:03:31.043Z,2.50
2019-06-07T17:05:59.493Z,2.43
2019-06-07T17:08:27.915Z,2.60
2019-06-07T17:10:56.367Z,2.60
2019-06-07T17:13:33.276Z,2.90
2019-06-07T17:15:54.995Z,2.97
2019-06-07T17:18:23.474Z,3.10
2019-06-07T17:20:51.928Z,2.90
2019-06-07T17:23:20.349Z,3.00
2019-06-07T17:25:49.791Z,3.47
2019-06-07T17:28:18.340Z,3.40
2019-06-07T17:30:48.170Z,3.30
2019-06-07T17:33:16.832Z,2.87
2019-06-07T17:35:46.485Z,3.07
2019-06-07T17:38:15.091Z,2.73
2019-06-07T17:40:44.861Z,3.07
2019-06-07T17:43:13.440Z,2.73
2019-06-07T17:45:43.341Z,3.27
2019-06-07T17:48:12.171Z,3.40
2019-06-07T17:50:41.661Z,3.40
2019-06-07T17:53:10.204Z,3.00
2019-06-07T17:55:38.703Z,3.20
2019-06-07T17:58:07.154Z,3.27
2019-06-07T18:00:48.807Z,2.93
2019-06-07T18:03:17.847Z,3.33
2019-06-07T18:05:49.158Z,3.27
2019-06-07T18:08:17.740Z,3.67
2019-06-07T18:10:47.731Z,3.80
2019-06-07T18:13:16.499Z,3.70
2019-06-07T18:15:51.701Z,4.00
2019-06-07T18:18:17.507Z,4.20
2019-06-07T18:20:47.207Z,3.93
2019-06-07T18:23:15.909Z,4.40
2019-06-07T18:25:44.482Z,4.40
2019-06-07T18:28:13.206Z,5.23
2019-06-07T18:30:41.774Z,4.90
2019-06-07T18:33:10.226Z,5.10
2019-06-07T18:35:38.644Z,5.47
2019-06-07T18:38:10.554Z,6.50
2019-06-07T18:40:37.378Z,6.70
2019-06-07T18:43:05.905Z,7.20
2019-06-07T18:45:34.329Z,8.03
2019-06-07T18:48:02.782Z,7.50
2019-06-07T18:50:31.273Z,7.90
2019-06-07T18:52:59.727Z,7.80
2019-06-07T18:55:28.283Z,7.97
2019-06-07T18:57:56.736Z,8.27
2019-06-07T19:00:25.899Z,8.03
2019-06-07T19:02:54.351Z,7.90
2019-06-07T19:05:22.843Z,8.20
2019-06-07T19:07:52.522Z,8.40
2019-06-07T19:10:21.333Z,8.13
2019-06-07T19:12:50.939Z,8.53
2019-06-07T19:15:20.051Z,8.57
2019-06-07T19:17:49.633Z,8.40
2019-06-07T19:20:18.740Z,8.80
2019-06-07T19:22:47.307Z,7.93
2019-06-07T19:25:16.212Z,8.20
2019-06-07T19:27:44.677Z,8.63
2019-06-07T19:30:14.268Z,7.57
2019-06-07T19:32:42.775Z,8.20
2019-06-07T19:35:11.455Z,7.70
2019-06-07T19:37:39.880Z,8.20
2019-06-07T19:40:08.681Z,7.63
2019-06-07T19:42:37.088Z,8.00
2019-06-07T19:45:28.848Z,7.83
2019-06-07T19:47:39.275Z,7.33
2019-06-07T19:50:08.197Z,7.20
2019-06-07T19:52:36.695Z,6.70
2019-06-07T19:55:09.867Z,7.70
2019-06-07T19:57:38.315Z,7.50
2019-06-07T20:00:14.089Z,7.00
2019-06-07T20:02:37.943Z,6.60
2019-06-07T20:05:07.332Z,7.10
2019-06-07T20:07:35.748Z,6.93
2019-06-07T20:10:07.989Z,6.90
2019-06-07T20:12:36.483Z,6.90
2019-06-07T20:15:27.285Z,6.47
2019-06-07T20:17:38.196Z,6.43
2019-06-07T20:20:08.944Z,6.50
2019-06-07T20:22:37.551Z,7.10
2019-06-07T20:25:06.441Z,6.80
2019-06-07T20:27:34.935Z,7.13
2019-06-07T20:30:05.248Z,6.70
2019-06-07T20:32:33.675Z,6.40
2019-06-07T20:35:02.160Z,7.10
2019-06-07T20:37:30.644Z,6.50
2019-06-07T20:40:11.358Z,6.83
2019-06-07T20:42:29.245Z,7.10
2019-06-07T20:44:57.664Z,6.87
2019-06-07T20:47:26.116Z,6.80
2019-06-07T20:49:54.544Z,7.23
2019-06-07T20:52:22.985Z,7.17
2019-06-07T20:54:51.406Z,7.33
2019-06-07T20:57:19.880Z,7.60
2019-06-07T20:59:48.293Z,8.10
2019-06-07T21:02:16.732Z,7.77
2019-06-07T21:04:45.158Z,7.37
2019-06-07T21:07:13.605Z,8.03
2019-06-07T21:09:42.026Z,7.17
2019-06-07T21:12:10.477Z,7.00
2019-06-07T21:14:38.904Z,7.20
2019-06-07T21:17:08.254Z,8.17
2019-06-07T21:19:36.852Z,7.07
2019-06-07T21:22:06.676Z,8.20
2019-06-07T21:24:35.291Z,7.83
2019-06-07T21:27:05.246Z,7.80
2019-06-07T21:29:33.910Z,7.23
2019-06-07T21:32:03.364Z,7.07
2019-06-07T21:34:31.934Z,7.60
2019-06-07T21:37:01.700Z,7.40
2019-06-07T21:39:30.285Z,7.80
2019-06-07T21:41:58.736Z,7.23
2019-06-07T21:44:27.173Z,7.20
2019-06-07T21:46:55.602Z,7.67
2019-06-07T21:49:24.023Z,7.23
2019-06-07T21:51:52.460Z,7.20
2019-06-07T21:54:20.907Z,7.60
2019-06-07T21:56:49.344Z,7.40
2019-06-07T21:59:17.793Z,8.60
2019-06-07T22:01:46.359Z,8.10
2019-06-07T22:04:14.797Z,7.63
2019-06-07T22:06:43.219Z,7.90
2019-06-07T22:09:12.375Z,7.87
2019-06-07T22:11:40.985Z,8.17
2019-06-07T22:14:10.430Z,6.80
2019-06-07T22:16:38.943Z,7.23
2019-06-07T22:19:08.679Z,7.50
2019-06-07T22:21:38.910Z,8.70
2019-06-07T22:24:08.798Z,7.33
2019-06-07T22:26:37.363Z,7.43
2019-06-07T22:29:06.284Z,7.83
2019-06-07T22:31:34.912Z,7.50
2019-06-07T22:34:03.705Z,8.90
2019-06-07T22:36:32.362Z,6.77
2019-06-07T22:39:00.894Z,6.60
2019-06-07T22:41:29.302Z,8.40
2019-06-07T22:43:57.773Z,8.87
2019-06-07T22:46:36.859Z,9.23
2019-06-07T22:48:56.369Z,8.03
2019-06-07T22:51:24.927Z,7.33
2019-06-07T22:53:53.370Z,7.30
2019-06-07T22:56:38.328Z,7.00
2019-06-07T22:59:07.960Z,6.93
2019-06-07T23:01:36.891Z,7.20
2019-06-07T23:04:05.349Z,6.90
2019-06-07T23:06:33.852Z,7.40
2019-06-07T23:09:02.299Z,6.90
2019-06-07T23:11:30.737Z,7.60
2019-06-07T23:13:59.187Z,8.07
2019-06-07T23:16:27.619Z,7.47
2019-06-07T23:18:56.130Z,7.37
2019-06-07T23:21:24.648Z,8.33
2019-06-07T23:23:53.267Z,7.17
2019-06-07T23:26:21.695Z,7.13
2019-06-07T23:28:50.224Z,7.10
2019-06-07T23:31:18.652Z,7.50
2019-06-07T23:33:47.095Z,7.13
2019-06-07T23:36:17.104Z,8.30
2019-06-07T23:38:45.761Z,7.67
2019-06-07T23:41:15.516Z,7.03
2019-06-07T23:43:44.017Z,7.60
2019-06-07T23:46:13.405Z,7.17
2019-06-07T23:48:41.979Z,7.33
2019-06-07T23:51:11.501Z,7.73
2019-06-07T23:53:40.141Z,8.03
2019-06-07T23:56:08.638Z,7.87
2019-06-07T23:58:37.096Z,7.90
